Time;durP1;ratioP1;P1;durP2;ratioP2;P2;SDS_P1;SDS_P2;PMS_P1;PMS_P2;Temp;Humidity;BMP_temperature;BMP_pressure;BME280_temperature;BME280_humidity;BME280_pressure;Samples;Min_cycle;Max_cycle;Signal;HPM_P1;HPM_P2
2022/05/04 00:01:16;;;;;;;0.80;0.70;;;;;;;3.27;70.83;100056.66;5138767;28;20088;-80
2022/05/04 00:03:47;;;;;;;1.23;0.80;;;;;;;3.33;70.65;100051.53;5138696;28;20060;-80
2022/05/04 00:06:18;;;;;;;6.00;0.80;;;;;;;3.35;70.24;100060.16;5138591;28;20024;-79
2022/05/04 00:08:49;;;;;;;0.63;0.63;;;;;;;3.57;70.10;100060.34;5134113;28;20034;-78
2022/05/04 00:11:21;;;;;;;3.70;1.00;;;;;;;3.68;70.16;100050.97;5105824;28;20055;-77
2022/05/04 00:13:52;;;;;;;1.20;0.60;;;;;;;4.00;68.66;100065.88;5110386;28;20039;-78
2022/05/04 00:16:23;;;;;;;4.00;0.60;;;;;;;4.12;68.37;100065.97;5103306;28;20056;-78
2022/05/04 00:18:54;;;;;;;0.63;0.63;;;;;;;4.31;66.18;100072.94;5104435;28;20055;-77
2022/05/04 00:21:24;;;;;;;2.25;0.50;;;;;;;4.25;65.90;100082.41;5113964;28;20048;-79
2022/05/04 00:23:55;;;;;;;0.73;0.60;;;;;;;4.24;67.28;100076.38;5107804;28;20028;-78
2022/05/04 00:26:28;;;;;;;0.85;0.50;;;;;;;4.28;66.36;100078.13;5100149;28;20048;-80
2022/05/04 00:28:58;;;;;;;9.60;1.02;;;;;;;4.31;66.69;100067.78;5110966;28;20059;-81
2022/05/04 00:31:29;;;;;;;4.85;0.80;;;;;;;4.22;66.59;100051.34;5081259;28;20067;-81
2022/05/04 00:34:02;;;;;;;2.20;0.70;;;;;;;4.24;67.13;100072.91;5085121;28;20048;-81
2022/05/04 00:36:33;;;;;;;3.63;0.90;;;;;;;4.23;67.48;100084.97;5080793;28;20304;-84
2022/05/04 00:39:04;;;;;;;1.20;0.50;;;;;;;3.89;66.57;100089.94;5093300;28;20048;-80
2022/05/04 00:41:37;;;;;;;0.60;0.60;;;;;;;3.81;67.71;100090.69;5098390;28;20048;-82
2022/05/04 00:44:08;;;;;;;0.85;0.57;;;;;;;4.09;66.97;100086.59;5087488;28;20114;-82
2022/05/04 00:46:38;;;;;;;0.63;0.60;;;;;;;4.23;66.78;100084.97;5090597;28;20252;-82
2022/05/04 00:49:09;;;;;;;5.93;0.80;;;;;;;4.22;67.51;100100.47;5095386;28;20044;-82
2022/05/04 00:51:40;;;;;;;0.52;0.52;;;;;;;4.31;66.48;100087.63;5085122;28;20091;-79
2022/05/04 00:54:11;;;;;;;1.23;0.45;;;;;;;4.28;65.85;100103.97;5094447;28;20061;-80
2022/05/04 00:56:49;;;;;;;4.57;2.05;;;;;;;3.91;66.02;100045.13;5099331;28;20108;-82
2022/05/04 00:59:32;;;;;;;4.18;2.20;;;;;;;3.38;66.49;99925.88;5099023;28;20398;-80
2022/05/04 01:02:03;;;;;;;0.70;0.70;;;;;;;4.29;65.89;100081.56;5096375;28;20052;-80
2022/05/04 01:04:34;;;;;;;6.85;2.53;;;;;;;4.62;65.51;100088.66;5090221;28;20048;-80
2022/05/04 01:07:05;;;;;;;0.65;0.65;;;;;;;4.84;64.77;100099.09;5083402;28;20380;-80
2022/05/04 01:09:36;;;;;;;0.77;0.60;;;;;;;4.70;63.94;100094.72;5087984;28;20407;-80
2022/05/04 01:12:10;;;;;;;0.90;0.57;;;;;;;4.70;63.93;100096.47;5082973;28;20044;-80
2022/05/04 01:14:40;;;;;;;0.82;0.70;;;;;;;4.94;64.24;100103.44;5095868;28;20040;-80
2022/05/04 01:17:11;;;;;;;0.50;0.50;;;;;;;4.84;63.55;100109.44;5091251;28;20111;-80
2022/05/04 01:19:42;;;;;;;0.50;0.50;;;;;;;4.80;64.29;100107.72;5092452;28;20071;-81
2022/05/04 01:22:14;;;;;;;4.47;2.40;;;;;;;4.75;64.24;100080.09;5098829;28;20288;-81
2022/05/04 01:24:45;;;;;;;1.77;0.80;;;;;;;5.26;64.44;100115.66;5099307;28;20044;-81
2022/05/04 01:27:15;;;;;;;8.60;0.80;;;;;;;5.10;63.53;100110.44;5092765;28;20055;-81
2022/05/04 01:29:47;;;;;;;1.00;0.90;;;;;;;5.07;63.70;100118.19;5094918;28;20062;-80
2022/05/04 01:32:18;;;;;;;1.95;0.70;;;;;;;4.70;63.99;100122.34;5100914;28;20052;-80
2022/05/04 01:34:49;;;;;;;0.50;0.50;;;;;;;4.51;66.00;100131.72;5103906;28;20182;-80
2022/05/04 01:37:21;;;;;;;1.08;0.70;;;;;;;4.68;65.90;100134.41;5099688;28;20060;-80
2022/05/04 01:39:52;;;;;;;1.67;0.80;;;;;;;4.53;66.14;100140.34;5097254;28;20098;-80
2022/05/04 01:42:24;;;;;;;0.70;0.70;;;;;;;4.56;66.89;100135.19;5096653;28;20303;-80
2022/05/04 01:44:55;;;;;;;1.77;0.70;;;;;;;4.44;67.01;100143.78;5093935;28;20053;-80
2022/05/04 01:47:25;;;;;;;2.10;0.60;;;;;;;4.65;67.61;100148.19;5093476;28;20051;-80
2022/05/04 01:49:56;;;;;;;4.47;0.80;;;;;;;4.66;67.26;100152.50;5094534;28;20322;-80
2022/05/04 01:52:29;;;;;;;1.15;0.55;;;;;;;4.68;68.68;100148.22;5090185;28;20068;-80
2022/05/04 01:55:02;;;;;;;1.65;0.60;;;;;;;4.58;69.59;100143.84;5097847;28;20076;-81
2022/05/04 01:57:33;;;;;;;3.45;0.60;;;;;;;4.92;68.56;100175.09;5088063;28;20048;-80
2022/05/04 02:00:04;;;;;;;0.70;0.70;;;;;;;4.84;69.15;100162.13;5090626;28;20053;-81
2022/05/04 02:02:35;;;;;;;1.90;0.65;;;;;;;4.65;67.81;100155.97;5100368;28;20351;-80
2022/05/04 02:05:10;;;;;;;1.05;0.93;;;;;;;4.42;67.94;100136.81;5087641;28;20044;-81
2022/05/04 02:07:42;;;;;;;0.60;0.60;;;;;;;4.49;69.25;100172.22;5084819;28;20051;-80
2022/05/04 02:10:13;;;;;;;3.13;0.80;;;;;;;4.56;69.17;100175.75;5086378;28;20444;-81
2022/05/04 02:12:44;;;;;;;0.80;0.60;;;;;;;4.38;67.55;100181.66;5099358;28;20101;-81
2022/05/04 02:15:17;;;;;;;3.15;0.80;;;;;;;4.39;70.47;100179.06;5094683;28;20347;-80
2022/05/04 02:17:47;;;;;;;0.70;0.60;;;;;;;4.48;68.47;100178.28;5092044;28;20053;-81
2022/05/04 02:20:18;;;;;;;2.25;0.70;;;;;;;4.48;69.15;100179.13;5095347;28;20048;-81
2022/05/04 02:22:51;;;;;;;1.90;0.80;;;;;;;4.38;67.26;100171.31;5095575;28;20035;-81
2022/05/04 02:25:22;;;;;;;5.85;0.80;;;;;;;4.08;67.44;100172.78;5102450;28;20115;-81
2022/05/04 02:27:53;;;;;;;2.28;0.60;;;;;;;4.02;68.35;100212.41;5097824;28;20048;-81
2022/05/04 02:30:24;;;;;;;0.52;0.52;;;;;;;3.58;67.84;100165.44;5094423;28;20240;-81
2022/05/04 02:32:54;;;;;;;1.20;0.70;;;;;;;3.83;68.70;100208.75;5101142;28;20040;-81
2022/05/04 02:38:14;;;;;;;1.38;0.70;;;;;;;3.91;68.71;100219.16;5093925;28;20115;-81
2022/05/04 02:40:44;;;;;;;2.15;0.70;;;;;;;4.08;68.49;100209.00;5102744;28;20044;-81
2022/05/04 02:43:15;;;;;;;2.65;1.05;;;;;;;3.99;68.66;100220.09;5099679;28;20282;-81
2022/05/04 02:45:46;;;;;;;1.20;0.90;;;;;;;3.85;67.95;100217.41;5101027;28;20232;-81
2022/05/04 02:48:17;;;;;;;0.60;0.60;;;;;;;3.60;68.25;100220.56;5093032;28;20052;-81
2022/05/04 02:50:47;;;;;;;1.92;0.50;;;;;;;3.48;68.52;100231.63;5088343;28;20048;-81
2022/05/04 02:53:19;;;;;;;1.02;0.65;;;;;;;3.19;68.23;100192.53;5096244;28;20060;-81
2022/05/04 02:55:50;;;;;;;7.20;1.15;;;;;;;3.08;68.98;100183.78;5089983;28;20052;-81
2022/05/04 02:58:20;;;;;;;1.17;0.80;;;;;;;3.52;68.97;100237.69;5092485;28;20076;-81
2022/05/04 03:00:51;;;;;;;1.60;0.70;;;;;;;3.69;67.82;100215.50;5101115;28;20644;-81
2022/05/04 03:03:21;;;;;;;2.03;0.85;;;;;;;3.58;68.37;100242.94;5090670;28;20115;-81
2022/05/04 03:05:51;;;;;;;2.47;0.70;;;;;;;3.55;69.20;100230.00;5095006;28;20044;-80
2022/05/04 03:08:23;;;;;;;0.95;0.80;;;;;;;3.77;68.14;100234.56;5086297;28;20100;-81
2022/05/04 03:13:41;;;;;;;1.60;0.70;;;;;;;3.74;68.56;100244.84;5097288;28;20316;-81
2022/05/04 03:16:12;;;;;;;1.50;0.80;;;;;;;3.60;68.10;100210.25;5093023;28;20048;-81
2022/05/04 03:18:42;;;;;;;0.63;0.63;;;;;;;3.82;68.24;100248.38;5100628;28;20059;-81
2022/05/04 03:21:13;;;;;;;1.15;0.63;;;;;;;3.62;67.85;100224.91;5096920;28;20051;-81
2022/05/04 03:23:47;;;;;;;4.55;0.75;;;;;;;3.77;68.62;100262.97;5091940;28;20040;-81
2022/05/04 03:26:18;;;;;;;0.50;0.50;;;;;;;3.73;68.04;100274.13;5092964;28;20074;-80
2022/05/04 03:28:49;;;;;;;0.70;0.70;;;;;;;3.50;68.78;100273.00;5086397;28;20105;-81
2022/05/04 03:31:20;;;;;;;3.05;0.80;;;;;;;3.65;69.76;100283.50;5099140;28;20383;-81
2022/05/04 03:33:51;;;;;;;2.58;0.90;;;;;;;3.98;69.36;100261.47;5094532;28;20048;-81
2022/05/04 03:36:22;;;;;;;5.85;0.80;;;;;;;4.32;69.42;100286.81;5088327;28;20040;-82
2022/05/04 03:38:54;;;;;;;7.50;0.80;;;;;;;4.28;69.23;100295.38;5090821;28;20056;-81
2022/05/04 03:41:25;;;;;;;1.02;0.90;;;;;;;4.17;71.21;100289.25;5090528;28;20039;-82
2022/05/04 03:43:55;;;;;;;1.83;0.70;;;;;;;3.99;71.30;100307.16;5091182;28;20383;-81
2022/05/04 03:46:27;;;;;;;1.80;0.70;;;;;;;3.87;73.70;100295.84;5094237;28;20093;-82
2022/05/04 03:48:59;;;;;;;1.00;0.88;;;;;;;3.33;74.41;100271.03;5094822;28;20051;-81
2022/05/04 03:51:29;;;;;;;1.30;0.60;;;;;;;3.36;75.55;100315.00;5096414;28;20052;-81
2022/05/04 03:54:01;;;;;;;1.08;0.70;;;;;;;3.14;76.44;100297.47;5102222;28;20228;-81
2022/05/04 03:56:33;;;;;;;1.73;0.60;;;;;;;3.32;76.28;100323.56;5110897;28;20060;-81
2022/05/04 03:59:04;;;;;;;1.85;0.50;;;;;;;3.40;76.17;100326.25;5102849;28;20079;-82
2022/05/04 04:01:35;;;;;;;1.50;0.60;;;;;;;3.46;76.28;100332.34;5104022;28;20039;-82
2022/05/04 04:04:19;;;;;;;;;;;;;;;;;;;;;
2022/05/04 04:10:55;;;;;;;1.48;0.65;;;;;;;3.38;77.73;100346.88;4894678;29;20371;-84
2022/05/04 04:13:29;;;;;;;1.30;0.80;;;;;;;3.30;78.77;100333.00;4988139;28;20346;-83
2022/05/04 04:15:59;;;;;;;0.73;0.73;;;;;;;3.45;79.52;100340.97;4994733;28;20057;-83
2022/05/04 04:18:30;;;;;;;1.05;0.88;;;;;;;3.40;77.51;100336.59;4992550;28;20043;-83
2022/05/04 04:23:53;;;;;;;3.85;0.90;;;;;;;3.51;76.22;100350.50;5037768;28;20112;-83
2022/05/04 04:26:25;;;;;;;1.95;0.95;;;;;;;3.30;75.03;100333.00;5082651;28;20539;-83
2022/05/04 04:28:56;;;;;;;1.35;0.77;;;;;;;3.48;76.32;100359.94;5100573;28;20416;-83
2022/05/04 04:31:27;;;;;;;2.20;0.82;;;;;;;3.66;75.04;100375.69;5082225;28;20116;-82
2022/05/04 04:33:58;;;;;;;0.60;0.60;;;;;;;3.61;74.62;100364.41;5090312;28;20048;-83
2022/05/04 04:36:29;;;;;;;2.55;0.93;;;;;;;3.33;73.91;100355.41;5081935;28;20336;-83
2022/05/04 04:39:00;;;;;;;1.75;1.00;;;;;;;3.40;74.64;100378.78;5084726;28;20052;-83
2022/05/04 04:41:32;;;;;;;3.42;1.13;;;;;;;3.56;73.95;100387.59;5097394;28;20055;-83
2022/05/04 04:44:03;;;;;;;6.72;1.00;;;;;;;3.54;73.94;100375.50;5089614;28;20111;-83
2022/05/04 04:46:34;;;;;;;3.22;1.00;;;;;;;3.56;73.34;100385.00;5083708;28;20060;-83
2022/05/04 04:49:05;;;;;;;3.28;0.80;;;;;;;3.49;72.34;100387.50;5087423;28;20053;-83
2022/05/04 04:51:36;;;;;;;1.95;0.90;;;;;;;3.37;73.33;100389.06;5098650;28;20086;-83
2022/05/04 04:54:07;;;;;;;5.82;0.90;;;;;;;3.35;73.25;100397.63;5086525;28;20072;-82
2022/05/04 04:56:40;;;;;;;3.05;1.05;;;;;;;3.21;74.04;100387.94;5091413;28;20035;-83
2022/05/04 04:59:11;;;;;;;2.90;0.80;;;;;;;3.06;74.32;100387.72;5097976;28;20230;-83
2022/05/04 05:01:41;;;;;;;2.85;0.90;;;;;;;3.19;74.74;100404.25;5086021;28;20082;-83
2022/05/04 05:04:12;;;;;;;3.22;1.02;;;;;;;3.15;74.63;100412.81;5091661;28;20406;-84
2022/05/04 05:06:43;;;;;;;4.60;1.20;;;;;;;2.84;75.32;100360.66;5104404;28;20319;-83
2022/05/04 05:09:14;;;;;;;3.30;1.08;;;;;;;3.02;75.86;100407.47;5102590;28;20060;-83
2022/05/04 05:11:46;;;;;;;4.40;0.95;;;;;;;2.96;76.15;100406.47;5096334;28;20052;-83
2022/05/04 05:17:04;;;;;;;2.80;1.50;;;;;;;2.84;78.15;100416.59;5104063;28;20344;-83
2022/05/04 05:19:35;;;;;;;2.17;1.02;;;;;;;2.59;78.03;100383.47;5094854;28;20107;-83
2022/05/04 05:22:06;;;;;;;4.85;1.08;;;;;;;2.71;78.45;100425.81;5092363;28;20124;-83
2022/05/04 05:24:37;;;;;;;2.08;0.98;;;;;;;2.64;78.58;100439.44;5092530;28;20048;-83
2022/05/04 05:27:11;;;;;;;6.15;1.20;;;;;;;2.62;79.51;100425.66;5091699;28;20295;-83
2022/05/04 05:29:42;;;;;;;1.48;0.93;;;;;;;2.48;79.08;100418.53;5094198;28;20243;-83
2022/05/04 05:32:13;;;;;;;2.53;1.08;;;;;;;2.64;78.63;100445.47;5087833;28;20076;-83
2022/05/04 05:34:43;;;;;;;2.80;0.95;;;;;;;2.59;78.74;100453.13;5083956;28;20329;-84
2022/05/04 05:37:14;;;;;;;4.57;1.30;;;;;;;2.64;79.02;100449.78;5097069;28;20056;-83
2022/05/04 05:39:45;;;;;;;3.60;1.20;;;;;;;2.62;78.50;100456.59;5096174;28;20237;-84
2022/05/04 05:42:18;;;;;;;5.28;1.25;;;;;;;2.52;78.90;100451.28;5101518;28;20142;-85
2022/05/04 05:44:49;;;;;;;5.10;1.05;;;;;;;2.41;78.58;100442.47;5091261;28;20049;-84
2022/05/04 05:47:20;;;;;;;2.92;1.10;;;;;;;2.45;79.10;100475.22;5093162;28;20111;-84
2022/05/04 05:49:51;;;;;;;3.25;1.20;;;;;;;2.37;78.75;100456.13;5087286;28;20047;-84
2022/05/04 05:52:24;;;;;;;6.28;1.40;;;;;;;2.37;79.04;100467.34;5090495;28;20248;-82
2022/05/04 05:54:55;;;;;;;3.63;1.13;;;;;;;2.37;79.21;100466.44;5103373;28;20111;-84
2022/05/04 05:57:28;;;;;;;7.60;1.63;;;;;;;2.25;79.22;100466.22;5102931;28;20107;-84
2022/05/04 06:00:04;;;;;;;2.88;1.13;;;;;;;2.23;79.82;100471.34;5108777;28;20052;-83
2022/05/04 06:02:37;;;;;;;4.68;1.38;;;;;;;2.25;79.75;100476.53;5109494;28;20048;-82
2022/05/04 06:05:08;;;;;;;7.07;1.60;;;;;;;2.24;79.70;100469.63;5108982;28;20154;-81
2022/05/04 06:07:40;;;;;;;8.52;1.80;;;;;;;2.20;80.06;100472.97;5111551;28;20056;-82
2022/05/04 06:10:11;;;;;;;3.42;1.50;;;;;;;2.32;79.96;100473.22;5108941;28;20124;-82
2022/05/04 06:12:43;;;;;;;4.03;1.55;;;;;;;2.38;80.04;100468.19;5111829;28;20098;-83
2022/05/04 06:15:15;;;;;;;9.00;1.20;;;;;;;2.47;80.28;100483.88;5110457;28;20316;-83
2022/05/04 06:17:47;;;;;;;3.25;1.50;;;;;;;2.43;80.51;100497.53;5112762;28;20078;-84
2022/05/04 06:20:18;;;;;;;4.30;1.40;;;;;;;2.37;81.33;100497.38;5111781;28;20089;-83
2022/05/04 06:22:49;;;;;;;3.08;1.27;;;;;;;2.28;82.01;100499.78;5110903;28;20206;-84
2022/05/04 06:25:20;;;;;;;2.67;1.10;;;;;;;2.19;81.44;100504.75;5110426;28;20035;-84
2022/05/04 06:27:52;;;;;;;4.00;1.63;;;;;;;2.14;82.60;100518.41;5110458;28;20055;-81
2022/05/04 06:35:58;;;;;;;3.20;1.25;;;;;;;2.03;82.82;100532.78;5111737;28;20054;-81
2022/05/04 06:38:30;;;;;;;1.48;1.20;;;;;;;1.94;82.42;100532.56;5099475;28;20044;-81
2022/05/04 06:41:01;;;;;;;2.80;1.45;;;;;;;2.02;82.84;100541.34;5102830;28;20371;-83
2022/05/04 06:43:34;;;;;;;4.07;1.40;;;;;;;1.97;82.97;100553.22;5096266;28;20209;-81
2022/05/04 06:46:05;;;;;;;4.78;1.40;;;;;;;1.94;83.33;100548.00;5091915;28;20075;-81
2022/05/04 06:48:36;;;;;;;5.25;2.05;;;;;;;1.95;83.29;100552.34;5099761;28;20340;-80
2022/05/04 06:51:07;;;;;;;5.70;1.40;;;;;;;1.90;83.14;100546.22;5094111;28;20064;-82
2022/05/04 06:53:38;;;;;;;2.50;1.15;;;;;;;1.91;82.93;100548.81;5100268;28;20093;-80
2022/05/04 06:56:27;;;;;;;7.03;2.10;;;;;;;1.91;82.95;100561.69;5096880;28;20064;-81
2022/05/04 06:58:59;;;;;;;2.35;1.20;;;;;;;1.71;82.79;100527.75;5090573;28;20360;-80
2022/05/04 07:01:30;;;;;;;5.07;1.55;;;;;;;1.91;83.05;100573.72;5090807;28;20245;-81
2022/05/04 07:04:01;;;;;;;3.83;1.52;;;;;;;1.91;83.30;100576.28;5092972;28;20082;-81
2022/05/04 07:06:32;;;;;;;8.02;1.85;;;;;;;1.86;83.28;100565.00;5082555;28;20240;-81
2022/05/04 07:09:03;;;;;;;6.32;1.65;;;;;;;1.96;82.95;100579.84;5092116;28;20051;-80
2022/05/04 07:11:33;;;;;;;7.45;1.55;;;;;;;2.01;82.66;100582.53;5097472;28;20048;-80
2022/05/04 07:14:06;;;;;;;5.53;1.50;;;;;;;2.08;82.69;100582.72;5101336;28;20249;-81
2022/05/04 07:16:37;;;;;;;5.88;1.55;;;;;;;2.15;82.21;100589.75;5092325;28;20084;-83
2022/05/04 07:19:15;;;;;;;6.18;2.45;;;;;;;2.13;82.17;100596.59;5088917;28;20240;-80
2022/05/04 07:21:47;;;;;;;3.58;1.52;;;;;;;2.01;82.02;100592.84;5089984;28;20112;-80
2022/05/04 07:24:18;;;;;;;8.68;1.50;;;;;;;1.98;82.37;100601.38;5089319;28;20044;-80
2022/05/04 07:26:49;;;;;;;6.65;2.00;;;;;;;2.00;82.45;100612.59;5093717;28;20041;-84
2022/05/04 07:29:22;;;;;;;8.88;1.70;;;;;;;1.97;82.70;100609.94;5101085;28;20111;-83
2022/05/04 07:31:52;;;;;;;5.93;1.70;;;;;;;2.03;82.52;100625.56;5086814;28;20082;-84
2022/05/04 07:34:23;;;;;;;4.00;1.67;;;;;;;2.01;82.52;100614.34;5085544;28;20367;-84
2022/05/04 07:36:54;;;;;;;7.38;1.80;;;;;;;2.02;82.61;100618.69;5092053;28;20040;-84
2022/05/04 07:42:25;;;;;;;5.05;1.80;;;;;;;1.94;82.29;100635.63;5101381;28;20051;-84
2022/05/04 07:45:09;;;;;;;2.97;1.42;;;;;;;1.21;82.19;100511.91;5091580;28;20059;-84
2022/05/04 07:47:41;;;;;;;8.60;2.85;;;;;;;1.91;82.24;100635.56;5098217;28;20052;-85
2022/05/04 07:50:13;;;;;;;6.80;1.98;;;;;;;1.69;82.02;100606.69;5093213;28;20076;-82
2022/05/04 07:52:44;;;;;;;8.25;2.92;;;;;;;1.90;82.50;100649.31;5081852;28;20051;-84
2022/05/04 07:55:20;;;;;;;4.25;1.52;;;;;;;1.69;82.41;100624.72;5081222;28;20040;-86
2022/05/04 07:57:51;;;;;;;8.57;1.75;;;;;;;1.67;82.75;100630.66;5081335;28;20059;-81
2022/05/04 08:06:04;;;;;;;4.72;1.70;;;;;;;1.66;83.28;100671.00;5085246;28;20055;-85
2022/05/04 08:08:34;;;;;;;5.90;1.90;;;;;;;1.50;83.36;100643.13;5095335;28;20345;-85
2022/05/04 08:11:05;;;;;;;10.48;1.60;;;;;;;1.57;83.49;100668.19;5090315;28;20086;-85
2022/05/04 08:13:36;;;;;;;9.30;1.98;;;;;;;1.56;83.46;100663.88;5095377;28;20051;-85
2022/05/04 08:16:11;;;;;;;9.85;1.80;;;;;;;1.57;83.85;100675.91;5085328;28;20044;-85
2022/05/04 08:18:42;;;;;;;8.68;2.20;;;;;;;1.46;84.04;100667.03;5097695;28;20052;-84
2022/05/04 08:21:16;;;;;;;5.80;1.60;;;;;;;1.60;83.84;100683.75;5096429;28;20048;-85
2022/05/04 08:23:46;;;;;;;5.50;2.20;;;;;;;1.58;84.05;100682.81;5095893;28;20048;-85
2022/05/04 08:26:23;;;;;;;9.70;3.10;;;;;;;1.51;84.11;100673.19;5087588;28;20483;-84
2022/05/04 08:28:54;;;;;;;7.22;2.95;;;;;;;0.59;83.98;100549.69;5091932;28;20107;-85
2022/05/04 08:31:28;;;;;;;14.55;3.90;;;;;;;1.48;84.49;100691.13;5092457;28;20052;-81
2022/05/04 08:33:58;;;;;;;7.05;2.13;;;;;;;1.40;84.43;100687.47;5104527;28;20044;-81
2022/05/04 08:36:29;;;;;;;5.53;1.73;;;;;;;1.37;84.58;100707.97;5093665;28;20044;-82
2022/05/04 08:38:59;;;;;;;7.88;2.67;;;;;;;1.34;84.69;100707.91;5087785;28;20052;-85
2022/05/04 08:41:31;;;;;;;9.88;3.08;;;;;;;1.18;84.85;100686.88;5096520;28;20332;-85
2022/05/04 08:44:04;;;;;;;9.70;1.83;;;;;;;1.36;85.21;100737.16;5091566;28;20052;-85
2022/05/04 08:46:39;;;;;;;11.80;2.50;;;;;;;1.38;84.77;100735.50;5102485;28;20331;-80
2022/05/04 08:49:12;;;;;;;6.53;3.60;;;;;;;1.23;85.15;100721.34;5094895;28;20051;-79
2022/05/04 08:51:43;;;;;;;5.20;2.30;;;;;;;1.28;85.00;100745.50;5100627;28;20267;-82
2022/05/04 08:54:14;;;;;;;5.88;1.73;;;;;;;1.33;84.90;100762.81;5100852;28;20282;-81
2022/05/04 08:56:45;;;;;;;5.95;3.03;;;;;;;1.32;84.98;100771.34;5107675;28;20052;-83
2022/05/04 08:59:16;;;;;;;9.43;3.20;;;;;;;1.31;85.31;100764.47;5109298;28;20062;-83
2022/05/04 09:01:49;;;;;;;13.63;5.57;;;;;;;1.29;85.35;100775.56;5112502;28;20328;-85
2022/05/04 09:04:32;;;;;;;8.55;3.92;;;;;;;1.29;85.47;100773.00;5110302;28;20062;-84
2022/05/04 09:11:46;;;;;;;8.65;3.88;;;;;;;0.60;85.23;100675.75;4917510;28;20069;-84
2022/05/04 09:14:19;;;;;;;6.15;2.90;;;;;;;1.11;85.40;100775.03;5023439;28;20072;-84
2022/05/04 09:16:52;;;;;;;3.85;1.70;;;;;;;1.27;85.38;100810.72;5021879;28;20270;-84
2022/05/04 09:19:25;;;;;;;3.17;1.88;;;;;;;1.05;85.39;100792.88;5021674;28;20057;-84
2022/05/04 09:21:56;;;;;;;8.70;3.50;;;;;;;1.29;85.55;100841.63;5021475;28;20041;-84
2022/05/04 09:24:29;;;;;;;8.43;4.15;;;;;;;1.27;85.36;100849.34;5069175;28;20058;-84
2022/05/04 09:27:01;;;;;;;7.63;3.20;;;;;;;1.28;85.45;100863.94;5084032;28;20044;-84
2022/05/04 09:29:36;;;;;;;7.80;2.15;;;;;;;1.11;85.36;100823.94;5083622;28;20055;-84
2022/05/04 09:32:17;;;;;;;8.88;1.95;;;;;;;1.29;85.16;100867.38;5084801;28;20114;-83
2022/05/04 09:34:56;;;;;;;8.90;2.55;;;;;;;1.03;84.92;100836.56;5082579;28;20249;-84
2022/05/04 09:45:55;;;;;;;6.50;1.73;;;;;;;1.36;84.32;100896.78;5082944;28;20048;-83
2022/05/04 09:48:34;;;;;;;7.55;3.70;;;;;;;1.36;84.70;100895.06;5082569;28;20040;-83
2022/05/04 09:51:07;;;;;;;;;;;;;;;1.36;83.97;100902.81;5083532;28;20044;-83
2022/05/04 09:53:39;;;;;;;9.82;3.47;;;;;;;1.34;83.96;100913.88;5083259;28;19987;-84
2022/05/04 09:56:12;;;;;;;4.68;2.90;;;;;;;1.35;84.19;100910.47;5080261;28;20040;-80
2022/05/04 09:58:44;;;;;;;7.68;3.67;;;;;;;1.15;84.21;100885.00;5082594;28;20083;-80
2022/05/04 10:01:16;;;;;;;5.60;3.20;;;;;;;1.31;84.26;100908.63;5080434;28;20068;-82
2022/05/04 10:03:50;;;;;;;5.43;3.10;;;;;;;1.33;83.92;100917.28;5082692;28;20076;-81
2022/05/04 10:06:23;;;;;;;4.93;1.90;;;;;;;1.20;84.26;100904.03;5081085;28;20118;-80
2022/05/04 10:08:54;;;;;;;8.40;1.98;;;;;;;1.28;84.09;100920.59;5082483;28;20107;-79
2022/05/04 10:11:25;;;;;;;6.13;2.10;;;;;;;1.34;84.41;100929.31;5082405;28;20139;-80
2022/05/04 10:14:04;;;;;;;4.32;1.70;;;;;;;1.36;84.28;100940.56;5082541;28;20060;-79
2022/05/04 10:16:43;;;;;;;7.38;1.90;;;;;;;1.35;84.25;100942.25;5082642;28;20060;-79
2022/05/04 10:19:23;;;;;;;7.25;2.08;;;;;;;0.31;84.29;100775.09;5082699;28;20052;-80
2022/05/04 10:21:58;;;;;;;4.95;1.42;;;;;;;1.17;84.11;100921.94;5082458;28;20075;-80
2022/05/04 10:24:35;;;;;;;5.95;1.55;;;;;;;0.94;83.90;100907.44;5082800;28;20062;-80
2022/05/04 10:27:20;;;;;;;4.57;1.92;;;;;;;1.31;84.40;100967.84;5082454;28;20060;-80
2022/05/04 10:32:39;;;;;;;3.17;1.45;;;;;;;1.07;84.20;100945.63;5082571;28;20075;-84
2022/05/04 10:35:36;;;;;;;7.50;1.40;;;;;;;1.32;83.94;100982.47;5082182;28;20063;-85
2022/05/04 10:38:13;;;;;;;4.03;1.48;;;;;;;0.55;83.84;100869.28;5082306;28;20079;-85
2022/05/04 10:40:50;;;;;;;8.45;1.65;;;;;;;1.32;84.24;100997.91;5063665;28;20059;-84
2022/05/04 10:43:36;;;;;;;8.95;1.73;;;;;;;1.31;84.03;101006.47;5074036;28;20212;-82
2022/05/04 10:46:11;;;;;;;7.05;2.22;;;;;;;1.33;84.20;101004.84;5084595;28;20056;-83
2022/05/04 10:48:46;;;;;;;4.35;1.50;;;;;;;0.91;84.11;100943.38;5083977;28;20050;-87
2022/05/04 10:51:22;;;;;;;4.43;1.65;;;;;;;1.36;83.82;101030.69;5085026;28;20049;-83
2022/05/04 10:53:53;;;;;;;9.20;1.60;;;;;;;1.13;84.22;100993.88;5086462;28;20055;-86
2022/05/04 10:56:25;;;;;;;6.88;1.90;;;;;;;1.01;83.98;100971.16;5078495;28;20059;-84
2022/05/04 10:58:59;;;;;;;8.60;2.10;;;;;;;1.36;83.95;101035.84;5090694;28;20052;-88
2022/05/04 11:01:36;;;;;;;8.30;1.98;;;;;;;0.96;83.75;100973.56;5096263;28;20096;-87
2022/05/04 11:04:25;;;;;;;7.65;2.10;;;;;;;1.17;83.91;101014.59;5095975;28;20078;-87
2022/05/04 11:07:07;;;;;;;4.80;2.38;;;;;;;1.19;83.72;101023.25;5095637;28;20031;-88
2022/05/04 11:09:47;;;;;;;6.10;2.00;;;;;;;1.20;83.67;101034.41;5099837;28;20070;-88
2022/05/04 11:17:10;;;;;;;5.53;1.92;;;;;;;1.32;83.89;101080.31;4892395;29;20133;-88
2022/05/04 11:20:40;;;;;;;;;;;;;;;;;;;;;
2022/05/04 11:48:37;;;;;;;6.40;1.52;;;;;;;0.79;83.40;101021.88;4897228;29;20352;-88
2022/05/04 12:02:28;;;;;;;8.30;2.30;;;;;;;1.43;84.01;101143.38;5014973;28;20105;-81
2022/05/04 12:04:59;;;;;;;7.50;2.05;;;;;;;1.40;83.47;101145.81;5057434;28;20103;-82
2022/05/04 12:07:35;;;;;;;5.47;1.80;;;;;;;1.24;83.94;101129.84;5087384;28;20352;-82
2022/05/04 12:10:07;;;;;;;6.85;1.80;;;;;;;1.31;83.71;101130.94;5089912;28;20128;-82
2022/05/04 12:12:40;;;;;;;6.55;1.73;;;;;;;1.32;84.08;101142.09;5090688;28;20244;-82
2022/05/04 12:15:16;;;;;;;5.88;1.98;;;;;;;1.28;84.46;101136.84;5094389;28;20075;-81
2022/05/04 12:17:47;;;;;;;4.68;1.95;;;;;;;0.96;84.10;101085.94;5098691;28;20118;-81
2022/05/04 12:20:21;;;;;;;4.82;2.38;;;;;;;0.88;84.33;101082.22;5096083;28;20059;-82
2022/05/04 12:22:53;;;;;;;7.78;2.03;;;;;;;1.28;84.30;101157.47;5096168;28;20154;-82
2022/05/04 12:25:25;;;;;;;6.95;2.20;;;;;;;1.29;84.22;101154.03;5097705;28;20074;-82
2022/05/04 12:27:57;;;;;;;5.78;1.92;;;;;;;0.97;84.03;101101.41;5099337;28;20099;-82
2022/05/04 12:33:15;;;;;;;7.68;2.10;;;;;;;1.19;84.10;101145.94;5100766;28;20055;-82
2022/05/04 12:35:49;;;;;;;8.52;2.60;;;;;;;1.26;84.08;101148.78;5082783;28;20044;-81
2022/05/04 12:38:21;;;;;;;4.22;1.85;;;;;;;1.37;83.88;101156.03;5094812;28;20351;-81
2022/05/04 12:40:52;;;;;;;6.97;2.00;;;;;;;1.32;83.59;101157.56;5100448;28;20107;-86
2022/05/04 12:43:32;;;;;;;8.65;2.42;;;;;;;1.28;84.00;101165.19;5102198;28;20074;-83
2022/05/04 12:46:04;;;;;;;4.05;1.60;;;;;;;1.27;83.85;101160.88;5099333;28;20271;-83
2022/05/04 12:48:35;;;;;;;4.80;1.77;;;;;;;1.24;83.93;101163.31;5102689;28;20044;-83
2022/05/04 12:51:07;;;;;;;6.07;1.80;;;;;;;1.22;83.73;101167.56;5102276;28;20107;-83
2022/05/04 12:53:39;;;;;;;8.98;2.00;;;;;;;1.10;83.57;101136.22;5103491;28;20086;-82
2022/05/04 12:59:01;;;;;;;5.90;2.20;;;;;;;1.19;83.81;101162.25;5104252;28;20044;-82
2022/05/04 13:01:35;;;;;;;6.53;2.00;;;;;;;1.19;83.76;101157.13;5117757;28;20074;-82
2022/05/04 13:04:07;;;;;;;5.43;1.95;;;;;;;0.72;82.98;101071.34;5117560;28;20028;-81
2022/05/04 13:06:37;;;;;;;3.75;1.23;;;;;;;1.20;82.67;101158.88;5117720;28;20088;-83
2022/05/04 13:09:10;;;;;;;2.33;1.50;;;;;;;1.22;82.85;101161.50;5117403;28;20028;-83
2022/05/04 13:11:42;;;;;;;3.95;1.90;;;;;;;1.19;82.38;101159.69;5117422;28;20117;-82
2022/05/04 13:14:13;;;;;;;2.33;1.45;;;;;;;1.20;82.16;101174.34;5120680;28;20028;-83
2022/05/04 13:16:44;;;;;;;5.07;1.70;;;;;;;0.96;82.38;101127.13;5119632;28;20028;-82
2022/05/04 13:19:16;;;;;;;2.83;1.65;;;;;;;1.13;82.44;101161.19;5120015;28;20042;-82
2022/05/04 13:21:47;;;;;;;5.88;1.50;;;;;;;1.10;81.99;101172.25;5119268;28;20048;-83
2022/05/04 13:24:20;;;;;;;3.25;1.85;;;;;;;1.05;82.08;101169.50;5119879;28;20043;-82
2022/05/04 13:26:51;;;;;;;2.65;1.60;;;;;;;0.80;82.74;101136.84;5120305;28;20040;-82
2022/05/04 13:29:22;;;;;;;4.07;1.80;;;;;;;0.95;82.84;101176.81;5119587;28;20043;-83
2022/05/04 13:31:53;;;;;;;5.75;1.40;;;;;;;0.74;82.97;101141.75;5119794;28;20092;-82
2022/05/04 13:34:24;;;;;;;4.40;1.50;;;;;;;0.63;82.73;101137.91;5116673;28;20040;-82